Snoqualmie River: Carnation station

back to: Snoqualmie river
Carnation station Summary - (NOAA Hydrograph: CRNW1)
flood stage: 54.0 ft
Latest reading:
Fri10/20 02:15 am 50.11 ft 10545 cfs (steady)
Past 24hr max:
Fri10/20 02:15 am 50.11 ft 10545 cfs
Forecasted crests: (published Thu 10/19/17 06:20 pm)
Sun10/22 05:00 pm 57.47 ft 37699 cfs

Carnation station Details

Latest Readings

Last 100 Readings:
Fri10/20 02:15 am 50.11 ft 10545 cfs
Fri10/20 02:00 am 50.11 ft 10545 cfs
Fri10/20 01:45 am 50.1 ft 10522 cfs
Fri10/20 01:30 am 50.09 ft 10499 cfs
Fri10/20 01:15 am 50.08 ft 10476 cfs
Fri10/20 01:00 am 50.08 ft 10476 cfs
Fri10/20 12:45 am 50.07 ft 10454 cfs
Fri10/20 12:30 am 50.06 ft 10431 cfs
Fri10/20 12:15 am 50.04 ft 10385 cfs
Fri10/20 12:00 am 50.02 ft 10340 cfs
Thu10/19 11:45 pm 50.0 ft 10294 cfs
Thu10/19 11:30 pm 49.98 ft 10249 cfs
Thu10/19 11:15 pm 49.96 ft 10203 cfs
Thu10/19 11:00 pm 49.94 ft 10158 cfs
Thu10/19 10:45 pm 49.91 ft 10089 cfs
Thu10/19 10:30 pm 49.89 ft 10044 cfs
Thu10/19 10:15 pm 49.87 ft 9998 cfs
Thu10/19 10:00 pm 49.84 ft 9930 cfs
Thu10/19 09:45 pm 49.82 ft 9885 cfs
Thu10/19 09:30 pm 49.82 ft 9885 cfs
Thu10/19 09:15 pm 49.8 ft 9841 cfs
Thu10/19 09:00 pm 49.79 ft 9818 cfs
Thu10/19 08:45 pm 49.78 ft 9796 cfs
Thu10/19 08:30 pm 49.77 ft 9774 cfs
Thu10/19 08:15 pm 49.76 ft 9752 cfs
Thu10/19 08:00 pm 49.76 ft 9752 cfs
Thu10/19 07:45 pm 49.75 ft 9729 cfs
Thu10/19 07:30 pm 49.75 ft 9729 cfs
Thu10/19 07:15 pm 49.74 ft 9707 cfs
Thu10/19 07:00 pm 49.75 ft 9729 cfs
Thu10/19 06:45 pm 49.75 ft 9729 cfs
Thu10/19 06:30 pm 49.75 ft 9729 cfs
Thu10/19 06:15 pm 49.76 ft 9752 cfs
Thu10/19 06:00 pm 49.76 ft 9752 cfs
Thu10/19 05:45 pm 49.77 ft 9774 cfs
Thu10/19 05:30 pm 49.76 ft 9752 cfs
Thu10/19 05:15 pm 49.78 ft 9796 cfs
Thu10/19 05:00 pm 49.78 ft 9796 cfs
Thu10/19 04:45 pm 49.79 ft 9818 cfs
Thu10/19 04:30 pm 49.81 ft 9863 cfs
Thu10/19 04:15 pm 49.81 ft 9863 cfs
Thu10/19 04:00 pm 49.8 ft 9841 cfs
Thu10/19 03:45 pm 49.81 ft 9863 cfs
Thu10/19 03:30 pm 49.82 ft 9885 cfs
Thu10/19 03:15 pm 49.82 ft 9885 cfs
Thu10/19 03:00 pm 49.82 ft 9885 cfs
Thu10/19 02:45 pm 49.82 ft 9885 cfs
Thu10/19 02:30 pm 49.82 ft 9885 cfs
Thu10/19 02:15 pm 49.81 ft 9863 cfs
Thu10/19 02:00 pm 49.8 ft 9841 cfs
Thu10/19 01:45 pm 49.79 ft 9818 cfs
Thu10/19 01:30 pm 49.78 ft 9796 cfs
Thu10/19 01:15 pm 49.77 ft 9774 cfs
Thu10/19 01:00 pm 49.75 ft 9729 cfs
Thu10/19 12:45 pm 49.73 ft 9685 cfs
Thu10/19 12:30 pm 49.71 ft 9640 cfs
Thu10/19 12:15 pm 49.68 ft 9566 cfs
Thu10/19 12:00 pm 49.64 ft 9468 cfs
Thu10/19 11:45 am 49.6 ft 9369 cfs
Thu10/19 11:30 am 49.57 ft 9296 cfs
Thu10/19 11:15 am 49.52 ft 9177 cfs
Thu10/19 11:00 am 49.48 ft 9082 cfs
Thu10/19 10:45 am 49.43 ft 8962 cfs
Thu10/19 10:30 am 49.36 ft 8795 cfs
Thu10/19 10:15 am 49.27 ft 8581 cfs
Thu10/19 10:00 am 49.19 ft 8390 cfs
Thu10/19 09:45 am 49.12 ft 8223 cfs
Thu10/19 09:30 am 49.05 ft 8056 cfs
Thu10/19 09:15 am 48.97 ft 7865 cfs
Thu10/19 09:00 am 48.88 ft 7655 cfs
Thu10/19 08:45 am 48.79 ft 7446 cfs
Thu10/19 08:30 am 48.7 ft 7232 cfs
Thu10/19 08:15 am 48.62 ft 7045 cfs
Thu10/19 08:00 am 48.52 ft 6814 cfs
Thu10/19 07:15 am 48.08 ft 5859 cfs
Thu10/19 07:00 am 48.0 ft 5685 cfs
Thu10/19 06:45 am 47.93 ft 5529 cfs
Thu10/19 06:30 am 47.87 ft 5386 cfs
Thu10/19 06:15 am 47.81 ft 5225 cfs
Thu10/19 06:00 am 47.76 ft 5090 cfs
Thu10/19 05:45 am 47.71 ft 4967 cfs
Thu10/19 05:30 am 47.65 ft 4819 cfs
Thu10/19 05:15 am 47.59 ft 4675 cfs
Thu10/19 05:00 am 47.53 ft 4532 cfs
Thu10/19 04:45 am 47.47 ft 4391 cfs
Thu10/19 04:30 am 47.4 ft 4229 cfs
Thu10/19 04:15 am 47.33 ft 4071 cfs
Thu10/19 04:00 am 47.25 ft 3892 cfs
Thu10/19 03:45 am 47.17 ft 3725 cfs
Thu10/19 03:30 am 47.09 ft 3558 cfs
Thu10/19 03:15 am 47.02 ft 3413 cfs
Thu10/19 03:00 am 46.94 ft 3250 cfs
Thu10/19 02:45 am 46.88 ft 3130 cfs
Thu10/19 02:30 am 46.81 ft 2993 cfs
Thu10/19 02:15 am 46.75 ft 2878 cfs
Thu10/19 02:00 am 46.7 ft 2783 cfs
Thu10/19 01:45 am 46.65 ft 2691 cfs
Thu10/19 01:30 am 46.61 ft 2617 cfs
Thu10/19 01:15 am 46.57 ft 2545 cfs
Thu10/19 01:00 am 46.53 ft 2474 cfs

Latest Forecasts

Currently Forecasted Readings:
Thu10/19 11:00 pm 49.64 ft 9458 cfs
Fri10/20 05:00 am 49.4 ft 8886 cfs
Fri10/20 11:00 am 49.31 ft 8671 cfs
Fri10/20 05:00 pm 49.01 ft 7951 cfs
Fri10/20 11:00 pm 48.79 ft 7444 cfs
Sat10/21 05:00 am 48.55 ft 6883 cfs
Sat10/21 11:00 am 48.18 ft 6075 cfs
Sat10/21 05:00 pm 48.34 ft 6423 cfs
Sat10/21 11:00 pm 51.09 ft 12870 cfs
Sun10/22 05:00 am 54.71 ft 21882 cfs
Sun10/22 11:00 am 56.73 ft 31899 cfs
Sun10/22 05:00 pm 57.47 ft 37699 cfs
Sun10/22 11:00 pm 55.34 ft 23880 cfs
Mon10/23 05:00 am 51.36 ft 13498 cfs
Mon10/23 11:00 am 49.88 ft 10010 cfs
Mon10/23 05:00 pm 48.96 ft 7839 cfs
Mon10/23 11:00 pm 48.33 ft 6392 cfs
Tue10/24 05:00 am 47.89 ft 5440 cfs
Tue10/24 11:00 am 47.64 ft 4790 cfs
Tue10/24 05:00 pm 47.45 ft 4340 cfs
Tue10/24 11:00 pm 47.29 ft 3988 cfs
Wed10/25 05:00 am 47.16 ft 3710 cfs
Wed10/25 11:00 am 47.06 ft 3490 cfs
Wed10/25 05:00 pm 46.96 ft 3298 cfs
Wed10/25 11:00 pm 46.87 ft 3108 cfs
Thu10/26 05:00 am 46.78 ft 2945 cfs
Thu10/26 11:00 am 46.71 ft 2800 cfs
Thu10/26 05:00 pm 46.64 ft 2674 cfs
Thu10/26 11:00 pm 46.58 ft 2555 cfs
Fri10/27 05:00 am 46.52 ft 2451 cfs
Fri10/27 11:00 am 46.46 ft 2350 cfs
Fri10/27 05:00 pm 46.41 ft 2262 cfs
Fri10/27 11:00 pm 46.37 ft 2191 cfs
Sat10/28 05:00 am 46.33 ft 2125 cfs
Sat10/28 11:00 am 46.28 ft 2052 cfs
Sat10/28 05:00 pm 46.25 ft 1999 cfs
Sat10/28 11:00 pm 46.35 ft 2169 cfs
Sun10/29 05:00 am 46.59 ft 2571 cfs

Snoqualmie River flood gauge data supplied by the
National Weather Service Northwest River Forecast Center.

Sign up for Floodzilla alerts.